createdAt,value
2018-01-02T00:01:53.610Z,63.81
2018-01-02T00:04:21.085Z,64.31
2018-01-02T00:06:48.532Z,64.00
2018-01-02T00:09:15.980Z,64.48
2018-01-02T00:11:43.448Z,64.27
2018-01-02T00:14:10.905Z,64.50
2018-01-02T00:16:38.362Z,64.01
2018-01-02T00:19:05.836Z,64.54
2018-01-02T00:21:33.300Z,64.48
2018-01-02T00:24:00.804Z,64.46
2018-01-02T00:26:28.284Z,64.30
2018-01-02T00:28:55.735Z,64.37
2018-01-02T00:31:23.188Z,65.56
2018-01-02T00:33:50.674Z,65.56
2018-01-02T00:36:18.132Z,66.42
2018-01-02T00:38:45.580Z,67.59
2018-01-02T00:41:13.096Z,68.45
2018-01-02T00:43:40.544Z,69.69
2018-01-02T00:46:07.992Z,70.93
2018-01-02T00:48:35.473Z,72.41
2018-01-02T00:51:02.925Z,72.95
2018-01-02T00:53:30.375Z,72.52
2018-01-02T00:55:57.869Z,72.69
2018-01-02T00:58:26.452Z,72.39
2018-01-02T01:00:55.616Z,71.93
2018-01-02T01:03:23.507Z,71.34
2018-01-02T01:05:51.236Z,70.86
2018-01-02T01:08:18.704Z,70.12
2018-01-02T01:10:46.320Z,70.28
2018-01-02T01:13:13.812Z,69.44
2018-01-02T01:15:41.273Z,69.89
2018-01-02T01:18:08.733Z,69.50
2018-01-02T01:20:36.301Z,69.38
2018-01-02T01:23:03.769Z,69.68
2018-01-02T01:25:31.225Z,69.55
2018-01-02T01:27:58.753Z,69.51
2018-01-02T01:30:26.224Z,69.81
2018-01-02T01:32:53.701Z,70.05
2018-01-02T01:35:21.152Z,70.39
2018-01-02T01:37:48.611Z,70.45
2018-01-02T01:40:16.079Z,69.97
2018-01-02T01:42:43.635Z,70.95
2018-01-02T01:45:11.104Z,70.33
2018-01-02T01:47:38.560Z,68.85
2018-01-02T01:50:06.024Z,68.37
2018-01-02T01:52:33.471Z,68.81
2018-01-02T01:55:00.944Z,69.14
2018-01-02T01:57:28.396Z,69.61
2018-01-02T01:59:55.937Z,70.54
2018-01-02T02:02:23.395Z,71.07
2018-01-02T02:04:50.864Z,71.79
2018-01-02T02:07:18.316Z,72.52
2018-01-02T02:09:45.785Z,72.62
2018-01-02T02:12:13.236Z,73.43
2018-01-02T02:14:40.708Z,74.39
2018-01-02T02:17:08.165Z,75.43
2018-01-02T02:19:35.632Z,74.88
2018-01-02T02:22:03.079Z,74.26
2018-01-02T02:24:30.554Z,74.58
2018-01-02T02:26:58.004Z,74.08
2018-01-02T02:29:25.605Z,71.84
2018-01-02T02:31:53.056Z,72.43
2018-01-02T02:34:20.525Z,72.01
2018-01-02T02:36:47.976Z,71.56
2018-01-02T02:39:15.452Z,71.37
2018-01-02T02:41:42.904Z,70.41
2018-01-02T02:44:10.380Z,70.66
2018-01-02T02:46:37.832Z,69.98
2018-01-02T02:49:05.299Z,69.88
2018-01-02T02:51:32.751Z,69.12
2018-01-02T02:54:00.216Z,69.55
2018-01-02T02:56:27.667Z,67.39
2018-01-02T02:58:55.219Z,67.81
2018-01-02T03:01:22.695Z,67.81
2018-01-02T03:03:50.163Z,67.06
2018-01-02T03:06:17.612Z,67.00
2018-01-02T03:08:45.079Z,66.03
2018-01-02T03:11:12.528Z,66.01
2018-01-02T03:13:40.008Z,65.58
2018-01-02T03:16:07.511Z,65.08
2018-01-02T03:18:34.980Z,64.07
2018-01-02T03:21:02.435Z,63.88
2018-01-02T03:23:29.904Z,63.88
2018-01-02T03:25:57.360Z,64.20
2018-01-02T03:28:24.909Z,65.06
2018-01-02T03:30:52.440Z,64.51
2018-01-02T03:33:19.852Z,63.76
2018-01-02T03:35:47.325Z,63.75
2018-01-02T03:38:14.780Z,63.57
2018-01-02T03:40:42.297Z,63.83
2018-01-02T03:43:09.757Z,63.95
2018-01-02T03:45:37.228Z,63.50
2018-01-02T03:48:04.679Z,63.36
2018-01-02T03:50:32.148Z,63.41
2018-01-02T03:52:59.600Z,63.76
2018-01-02T03:55:27.071Z,64.24
2018-01-02T03:57:54.520Z,64.34
2018-01-02T04:00:21.993Z,64.43
2018-01-02T04:02:49.465Z,64.08
2018-01-02T04:05:16.931Z,64.29
2018-01-02T04:07:44.385Z,64.49
2018-01-02T04:10:11.872Z,64.88
2018-01-02T04:12:39.326Z,64.33
2018-01-02T04:15:06.818Z,65.06
2018-01-02T04:17:34.281Z,64.38
2018-01-02T04:20:01.748Z,64.73
2018-01-02T04:22:29.195Z,64.82
2018-01-02T04:24:56.664Z,65.55
2018-01-02T04:27:24.114Z,65.90
2018-01-02T04:29:51.646Z,66.05
2018-01-02T04:32:19.114Z,66.54
2018-01-02T04:34:46.580Z,65.67
2018-01-02T04:37:14.032Z,65.72
2018-01-02T04:39:41.509Z,65.47
2018-01-02T04:42:08.960Z,65.07
2018-01-02T04:44:36.428Z,65.26
2018-01-02T04:47:03.934Z,65.43
2018-01-02T04:49:31.416Z,65.52
2018-01-02T04:51:58.872Z,66.94
2018-01-02T04:54:26.422Z,68.50
2018-01-02T04:56:53.880Z,69.97
2018-01-02T04:59:21.341Z,70.65
2018-01-02T05:01:48.820Z,70.58
2018-01-02T05:04:16.276Z,70.55
2018-01-02T05:06:43.748Z,70.45
2018-01-02T05:09:11.195Z,71.01
2018-01-02T05:11:38.668Z,71.49
2018-01-02T05:14:06.128Z,71.76
2018-01-02T05:16:33.595Z,71.46
2018-01-02T05:19:01.073Z,72.15
2018-01-02T05:21:28.545Z,73.99
2018-01-02T05:23:55.996Z,75.27
2018-01-02T05:26:23.467Z,75.30
2018-01-02T05:28:50.921Z,75.19
2018-01-02T05:31:18.393Z,75.72
2018-01-02T05:33:45.849Z,75.39
2018-01-02T05:36:13.316Z,75.70
2018-01-02T05:38:40.776Z,75.64
2018-01-02T05:41:08.244Z,75.69
2018-01-02T05:43:35.696Z,75.86
2018-01-02T05:46:03.168Z,76.07
2018-01-02T05:48:30.615Z,75.70
2018-01-02T05:50:58.080Z,75.31
2018-01-02T05:53:25.532Z,75.34
2018-01-02T05:55:53.001Z,74.97
2018-01-02T05:58:20.515Z,74.54
2018-01-02T06:00:47.988Z,73.86
2018-01-02T06:03:15.452Z,73.71
2018-01-02T06:05:42.899Z,73.51
2018-01-02T06:08:10.368Z,73.64
2018-01-02T06:10:37.825Z,73.83
2018-01-02T06:13:05.349Z,73.34
2018-01-02T06:15:32.800Z,72.73
2018-01-02T06:18:00.347Z,71.88
2018-01-02T06:20:27.936Z,72.05
2018-01-02T06:22:55.416Z,71.35
2018-01-02T06:25:22.953Z,71.26
2018-01-02T06:27:50.421Z,71.22
2018-01-02T06:30:17.877Z,71.28
2018-01-02T06:32:45.343Z,70.54
2018-01-02T06:35:12.792Z,70.56
2018-01-02T06:37:40.268Z,70.26
2018-01-02T06:40:07.725Z,70.47
2018-01-02T06:42:35.192Z,69.80
2018-01-02T06:45:02.640Z,69.76
2018-01-02T06:47:30.171Z,69.58
2018-01-02T06:49:57.624Z,69.45
2018-01-02T06:52:25.103Z,69.33
2018-01-02T06:54:52.556Z,69.09
2018-01-02T06:57:20.024Z,71.91
2018-01-02T06:59:47.471Z,73.17
2018-01-02T07:02:14.940Z,73.75
2018-01-02T07:04:42.399Z,74.51
2018-01-02T07:07:09.871Z,73.88
2018-01-02T07:09:37.320Z,74.18
2018-01-02T07:12:04.792Z,73.95
2018-01-02T07:14:32.248Z,74.27
2018-01-02T07:16:59.765Z,73.37
2018-01-02T07:19:27.219Z,74.07
2018-01-02T07:21:54.692Z,74.21
2018-01-02T07:24:22.153Z,73.51
2018-01-02T07:26:49.690Z,73.52
2018-01-02T07:29:18.605Z,72.55
2018-01-02T07:31:46.080Z,72.81
2018-01-02T07:34:13.603Z,72.49
2018-01-02T07:36:41.099Z,72.79
2018-01-02T07:39:08.548Z,72.97
2018-01-02T07:41:36.520Z,72.66
2018-01-02T07:44:04.047Z,72.60
2018-01-02T07:46:31.520Z,71.21
2018-01-02T07:48:58.976Z,70.67
2018-01-02T07:51:26.449Z,70.13
2018-01-02T07:53:53.904Z,69.94
2018-01-02T07:56:21.358Z,70.01
2018-01-02T07:58:48.892Z,72.84
2018-01-02T08:01:16.356Z,75.98
2018-01-02T08:03:43.828Z,83.21
2018-01-02T08:06:11.561Z,86.54
2018-01-02T08:08:39.030Z,87.69
2018-01-02T08:11:06.588Z,88.06
2018-01-02T08:13:34.081Z,88.64
2018-01-02T08:16:02.014Z,88.46
2018-01-02T08:18:29.484Z,88.71
2018-01-02T08:20:56.932Z,89.63
2018-01-02T08:23:24.405Z,88.89
2018-01-02T08:25:51.860Z,89.23
2018-01-02T08:28:19.328Z,89.43
2018-01-02T08:30:46.784Z,89.33
2018-01-02T08:33:14.257Z,88.47
2018-01-02T08:35:41.720Z,88.90
2018-01-02T08:38:09.193Z,88.25
2018-01-02T08:40:36.689Z,88.37
2018-01-02T08:43:04.159Z,88.03
2018-01-02T08:45:31.611Z,87.99
2018-01-02T08:47:59.075Z,87.15
2018-01-02T08:50:26.524Z,85.54
2018-01-02T08:52:53.997Z,84.71
2018-01-02T08:55:21.453Z,83.61
2018-01-02T08:57:48.920Z,81.68
2018-01-02T09:00:16.369Z,79.41
2018-01-02T09:02:43.852Z,77.00
2018-01-02T09:05:11.303Z,77.67
2018-01-02T09:07:38.777Z,79.33
2018-01-02T09:10:06.236Z,78.84
2018-01-02T09:12:39.412Z,71.46
2018-01-02T09:15:06.860Z,70.96
2018-01-02T09:17:34.332Z,69.59
2018-01-02T09:20:01.789Z,70.60
2018-01-02T09:22:29.260Z,73.82
2018-01-02T09:24:56.716Z,71.87
2018-01-02T09:27:24.223Z,70.89
2018-01-02T09:29:51.672Z,71.39
2018-01-02T09:32:19.129Z,69.44
2018-01-02T09:34:46.604Z,70.90
2018-01-02T09:37:14.061Z,69.88
2018-01-02T09:39:41.552Z,67.10
2018-01-02T09:42:09.008Z,64.28
2018-01-02T09:44:36.477Z,65.75
2018-01-02T09:47:03.931Z,70.65
2018-01-02T09:49:31.404Z,73.41
2018-01-02T09:51:58.913Z,74.84
2018-01-02T09:54:26.448Z,74.30
2018-01-02T09:56:53.904Z,76.47
2018-01-02T09:59:21.376Z,74.71
2018-01-02T10:01:48.828Z,74.67
2018-01-02T10:04:16.304Z,75.53
2018-01-02T10:06:43.760Z,77.27
2018-01-02T10:09:11.235Z,76.36
2018-01-02T10:11:38.713Z,76.72
2018-01-02T10:14:06.203Z,77.21
2018-01-02T10:16:33.660Z,77.42
2018-01-02T10:19:01.132Z,78.60
2018-01-02T10:21:28.589Z,80.04
2018-01-02T10:23:56.068Z,79.72
2018-01-02T10:26:23.520Z,81.86
2018-01-02T10:28:51.022Z,83.85
2018-01-02T10:31:18.472Z,83.92
2018-01-02T10:33:45.941Z,83.69
2018-01-02T10:36:13.395Z,84.35
2018-01-02T10:38:40.881Z,84.51
2018-01-02T10:41:08.336Z,82.54
2018-01-02T10:43:35.808Z,82.97
2018-01-02T10:46:03.262Z,83.58
2018-01-02T10:48:30.815Z,83.81
2018-01-02T10:50:58.271Z,81.89
2018-01-02T10:53:25.744Z,82.24
2018-01-02T10:55:53.203Z,80.54
2018-01-02T10:58:20.668Z,80.44
2018-01-02T11:01:04.941Z,80.54
2018-01-02T11:03:32.456Z,78.98
2018-01-02T11:06:00.344Z,76.59
2018-01-02T11:08:27.814Z,76.49
2018-01-02T11:11:01.160Z,77.38
2018-01-02T11:13:36.546Z,77.05
2018-01-02T11:16:04.895Z,76.01
2018-01-02T11:18:32.363Z,75.58
2018-01-02T11:21:00.151Z,74.54
2018-01-02T11:23:27.689Z,74.20
2018-01-02T11:25:55.157Z,73.28
2018-01-02T11:28:22.608Z,73.72
2018-01-02T11:30:50.124Z,74.11
2018-01-02T11:33:17.580Z,72.68
2018-01-02T11:35:45.222Z,73.91
2018-01-02T11:38:12.829Z,72.60
2018-01-02T11:40:40.361Z,72.03
2018-01-02T11:43:07.846Z,72.34
2018-01-02T11:45:35.411Z,71.66
2018-01-02T11:48:02.972Z,71.08
2018-01-02T11:50:30.694Z,70.87
2018-01-02T11:52:58.160Z,70.53
2018-01-02T11:55:25.961Z,71.33
2018-01-02T11:57:53.468Z,70.48
2018-01-02T12:00:20.936Z,72.06
2018-01-02T12:02:48.388Z,73.66
2018-01-02T12:05:16.432Z,72.94
2018-01-02T12:07:43.885Z,74.50
2018-01-02T12:10:11.352Z,73.52
2018-01-02T12:12:38.804Z,73.94
2018-01-02T12:15:06.507Z,73.68
2018-01-02T12:17:34.024Z,73.39
2018-01-02T12:20:01.500Z,73.95
2018-01-02T12:22:28.992Z,73.53
2018-01-02T12:24:56.460Z,72.98
2018-01-02T12:27:23.912Z,73.83
2018-01-02T12:29:51.420Z,72.65
2018-01-02T12:32:18.939Z,72.36
2018-01-02T12:34:46.411Z,72.60
2018-01-02T12:37:13.939Z,71.97
2018-01-02T12:39:41.420Z,72.33
2018-01-02T12:42:08.877Z,72.39
2018-01-02T12:44:36.356Z,71.84
2018-01-02T12:47:04.804Z,72.23
2018-01-02T12:49:32.276Z,71.14
2018-01-02T12:51:59.728Z,70.25
2018-01-02T12:54:27.197Z,69.71
2018-01-02T12:56:54.649Z,68.62
2018-01-02T12:59:22.120Z,69.48
2018-01-02T13:01:49.584Z,69.30
2018-01-02T13:04:17.052Z,68.68
2018-01-02T13:06:44.562Z,69.10
2018-01-02T13:09:12.032Z,68.68
2018-01-02T13:11:39.484Z,68.02
2018-01-02T13:14:07.143Z,68.25
2018-01-02T13:16:34.592Z,68.35
2018-01-02T13:19:02.063Z,68.31
2018-01-02T13:21:29.518Z,69.38
2018-01-02T13:23:56.990Z,68.94
2018-01-02T13:26:24.454Z,69.05
2018-01-02T13:28:51.928Z,69.34
2018-01-02T13:31:19.384Z,69.01
2018-01-02T13:33:46.938Z,70.03
2018-01-02T13:36:14.568Z,70.65
2018-01-02T13:38:42.097Z,70.85
2018-01-02T13:41:09.552Z,71.56
2018-01-02T13:43:37.136Z,71.59
2018-01-02T13:46:04.702Z,71.69
2018-01-02T13:48:32.266Z,72.59
2018-01-02T13:51:00.771Z,72.52
2018-01-02T13:53:28.339Z,73.09
2018-01-02T13:55:55.808Z,72.36
2018-01-02T13:58:23.326Z,73.30
2018-01-02T14:00:50.911Z,73.64
2018-01-02T14:03:18.381Z,73.75
2018-01-02T14:05:45.872Z,74.18
2018-01-02T14:08:13.335Z,74.42
2018-01-02T14:10:40.799Z,74.69
2018-01-02T14:13:08.487Z,75.17
2018-01-02T14:15:36.096Z,75.32
2018-01-02T14:18:04.601Z,75.36
2018-01-02T14:20:32.568Z,75.30
2018-01-02T14:23:00.089Z,75.35
2018-01-02T14:25:27.568Z,76.51
2018-01-02T14:27:55.024Z,77.64
2018-01-02T14:30:22.529Z,78.15
2018-01-02T14:32:49.996Z,78.01
2018-01-02T14:35:17.464Z,77.42
2018-01-02T14:37:44.915Z,77.98
2018-01-02T14:40:12.424Z,78.16
2018-01-02T14:42:39.892Z,77.50
2018-01-02T14:45:07.372Z,77.89
2018-01-02T14:47:34.824Z,78.38
2018-01-02T14:50:02.292Z,78.47
2018-01-02T14:52:29.797Z,78.83
2018-01-02T14:54:57.264Z,78.75
2018-01-02T14:57:24.769Z,79.13
2018-01-02T14:59:52.277Z,79.40
2018-01-02T15:02:19.720Z,79.74
2018-01-02T15:04:47.184Z,80.34
2018-01-02T15:07:14.646Z,81.01
2018-01-02T15:09:42.112Z,81.51
2018-01-02T15:12:09.564Z,81.94
2018-01-02T15:14:37.036Z,82.20
2018-01-02T15:17:04.504Z,82.00
2018-01-02T15:19:31.976Z,81.78
2018-01-02T15:21:59.451Z,81.87
2018-01-02T15:24:26.920Z,81.91
2018-01-02T15:26:54.372Z,81.36
2018-01-02T15:29:21.840Z,80.83
2018-01-02T15:31:49.295Z,81.01
2018-01-02T15:34:16.753Z,81.12
2018-01-02T15:36:44.222Z,81.00
2018-01-02T15:39:11.737Z,81.22
2018-01-02T15:41:39.209Z,80.78
2018-01-02T15:44:06.667Z,81.18
2018-01-02T15:46:34.207Z,81.47
2018-01-02T15:49:01.663Z,81.23
2018-01-02T15:51:29.135Z,80.88
2018-01-02T15:53:56.626Z,80.52
2018-01-02T15:56:24.138Z,80.25
2018-01-02T15:58:51.596Z,80.26
2018-01-02T16:01:21.116Z,79.92
2018-01-02T16:03:50.597Z,79.28
2018-01-02T16:06:20.199Z,79.51
2018-01-02T16:08:47.684Z,79.36
2018-01-02T16:11:18.146Z,79.69
2018-01-02T16:13:45.768Z,79.71
2018-01-02T16:16:13.414Z,79.62
2018-01-02T16:18:40.876Z,80.02
2018-01-02T16:21:08.354Z,80.03
2018-01-02T16:23:35.811Z,80.00
2018-01-02T16:26:03.288Z,80.25
2018-01-02T16:28:30.748Z,80.27
2018-01-02T16:30:58.225Z,80.34
2018-01-02T16:33:25.829Z,80.19
2018-01-02T16:35:53.320Z,80.17
2018-01-02T16:38:20.780Z,80.20
2018-01-02T16:40:48.307Z,80.02
2018-01-02T16:43:15.760Z,80.26
2018-01-02T16:45:43.250Z,80.45
2018-01-02T16:48:10.724Z,80.37
2018-01-02T16:50:38.205Z,80.53
2018-01-02T16:53:05.672Z,80.54
2018-01-02T16:55:33.140Z,80.54
2018-01-02T16:58:00.604Z,80.32
2018-01-02T17:00:28.944Z,80.70
2018-01-02T17:02:56.439Z,80.99
2018-01-02T17:05:23.908Z,80.57
2018-01-02T17:07:51.368Z,80.37
2018-01-02T17:10:18.824Z,80.17
2018-01-02T17:12:46.301Z,79.71
2018-01-02T17:15:13.752Z,78.40
2018-01-02T17:17:41.220Z,78.03
2018-01-02T17:20:08.680Z,77.27
2018-01-02T17:22:36.156Z,76.69
2018-01-02T17:25:03.612Z,76.33
2018-01-02T17:27:31.088Z,75.58
2018-01-02T17:29:58.590Z,75.53
2018-01-02T17:32:26.048Z,75.23
2018-01-02T17:34:53.500Z,74.58
2018-01-02T17:37:20.968Z,74.97
2018-01-02T17:39:48.436Z,73.73
2018-01-02T17:42:15.914Z,73.14
2018-01-02T17:44:43.375Z,73.18
2018-01-02T17:47:10.853Z,72.90
2018-01-02T17:49:38.304Z,73.04
2018-01-02T17:52:05.772Z,73.36
2018-01-02T17:54:33.223Z,73.19
2018-01-02T17:57:00.708Z,73.14
2018-01-02T17:59:28.164Z,73.31
2018-01-02T18:01:55.669Z,73.06
2018-01-02T18:04:23.129Z,72.93
2018-01-02T18:06:50.617Z,73.60
2018-01-02T18:09:18.103Z,73.45
2018-01-02T18:11:45.576Z,73.85
2018-01-02T18:14:13.096Z,74.30
2018-01-02T18:16:41.524Z,74.46
2018-01-02T18:19:08.980Z,74.80
2018-01-02T18:21:36.447Z,74.31
2018-01-02T18:24:03.972Z,74.41
2018-01-02T18:26:31.516Z,74.47
2018-01-02T18:28:59.024Z,74.27
2018-01-02T18:31:26.508Z,74.87
2018-01-02T18:33:53.960Z,75.26
2018-01-02T18:36:21.412Z,75.51
2018-01-02T18:39:00.008Z,75.46
2018-01-02T18:41:29.467Z,75.71
2018-01-02T18:43:56.957Z,76.18
2018-01-02T18:46:24.420Z,76.66
2018-01-02T18:48:51.964Z,76.68
2018-01-02T18:51:23.018Z,76.13
2018-01-02T18:53:50.556Z,76.14
2018-01-02T18:56:18.058Z,76.50
2018-01-02T18:58:45.514Z,76.85
2018-01-02T19:01:16.349Z,76.74
2018-01-02T19:03:43.916Z,76.74
2018-01-02T19:06:12.639Z,76.51
2018-01-02T19:08:40.152Z,76.28
2018-01-02T19:11:07.716Z,76.56
2018-01-02T19:13:36.833Z,76.46
2018-01-02T19:16:04.459Z,76.21
2018-01-02T19:18:33.303Z,76.18
2018-01-02T19:21:00.800Z,76.37
2018-01-02T19:23:28.277Z,76.81
2018-01-02T19:25:55.736Z,75.96
2018-01-02T19:28:23.189Z,76.15
2018-01-02T19:30:50.781Z,76.50
2018-01-02T19:33:18.240Z,76.61
2018-01-02T19:35:46.095Z,76.90
2018-01-02T19:38:13.564Z,77.29
2018-01-02T19:40:52.507Z,76.74
2018-01-02T19:43:20.033Z,76.83
2018-01-02T19:45:47.509Z,75.85
2018-01-02T19:48:14.977Z,75.66
2018-01-02T19:50:42.452Z,75.34
2018-01-02T19:53:09.912Z,75.30
2018-01-02T19:55:37.388Z,75.00
2018-01-02T19:58:04.916Z,74.12
2018-01-02T20:00:32.434Z,73.60
2018-01-02T20:02:59.912Z,73.71
2018-01-02T20:05:27.396Z,73.56
2018-01-02T20:07:54.852Z,73.23
2018-01-02T20:10:22.328Z,72.35
2018-01-02T20:12:53.198Z,71.95
2018-01-02T20:15:21.072Z,71.73
2018-01-02T20:17:48.532Z,72.04
2018-01-02T20:20:16.012Z,71.41
2018-01-02T20:22:43.533Z,70.92
2018-01-02T20:25:11.020Z,70.68
2018-01-02T20:27:38.589Z,70.51
2018-01-02T20:30:06.134Z,70.36
2018-01-02T20:32:33.782Z,70.02
2018-01-02T20:35:02.283Z,70.32
2018-01-02T20:37:32.331Z,71.03
2018-01-02T20:39:59.908Z,70.83
2018-01-02T20:42:27.368Z,71.27
2018-01-02T20:44:54.844Z,71.04
2018-01-02T20:47:22.308Z,71.52
2018-01-02T20:49:49.784Z,71.33
2018-01-02T20:52:17.245Z,71.52
2018-01-02T20:54:44.724Z,71.26
2018-01-02T20:57:14.144Z,71.59
2018-01-02T20:59:41.755Z,71.57
2018-01-02T21:02:09.301Z,71.15
2018-01-02T21:04:36.779Z,71.76
2018-01-02T21:07:04.244Z,71.87
2018-01-02T21:09:31.728Z,72.28
2018-01-02T21:11:59.188Z,72.28
2018-01-02T21:14:26.676Z,72.09
2018-01-02T21:16:55.924Z,72.56
2018-01-02T21:19:23.476Z,72.56
2018-01-02T21:21:50.939Z,71.64
2018-01-02T21:24:18.405Z,71.90
2018-01-02T21:26:45.884Z,71.68
2018-01-02T21:29:13.357Z,71.73
2018-01-02T21:31:41.185Z,71.89
2018-01-02T21:34:08.680Z,71.84
2018-01-02T21:36:36.156Z,71.13
2018-01-02T21:39:03.851Z,71.53
2018-01-02T21:41:31.384Z,71.79
2018-01-02T21:43:58.900Z,72.17
2018-01-02T21:46:26.520Z,72.09
2018-01-02T21:48:54.008Z,71.97
2018-01-02T21:51:21.484Z,72.36
2018-01-02T21:53:48.943Z,72.66
2018-01-02T21:56:16.446Z,72.98
2018-01-02T21:58:43.896Z,73.38
2018-01-02T22:01:11.374Z,74.05
2018-01-02T22:03:38.828Z,74.49
2018-01-02T22:06:06.311Z,74.72
2018-01-02T22:08:33.772Z,75.05
2018-01-02T22:11:01.244Z,75.60
2018-01-02T22:13:28.699Z,75.08
2018-01-02T22:15:56.168Z,74.74
2018-01-02T22:18:23.628Z,74.45
2018-01-02T22:20:51.100Z,74.43
2018-01-02T22:23:18.584Z,74.55
2018-01-02T22:25:46.060Z,74.54
2018-01-02T22:28:13.512Z,74.46
2018-01-02T22:30:40.984Z,73.79
2018-01-02T22:33:08.435Z,73.78
2018-01-02T22:35:35.912Z,74.51
2018-01-02T22:38:03.372Z,74.46
2018-01-02T22:40:30.840Z,74.42
2018-01-02T22:42:58.339Z,74.56
2018-01-02T22:45:25.808Z,74.82
2018-01-02T22:47:53.268Z,74.41
2018-01-02T22:50:20.815Z,74.71
2018-01-02T22:52:48.270Z,74.48
2018-01-02T22:55:15.726Z,73.49
2018-01-02T22:57:43.195Z,73.48
2018-01-02T23:00:10.647Z,72.81
2018-01-02T23:02:38.124Z,72.90
2018-01-02T23:05:05.580Z,72.72
2018-01-02T23:07:33.067Z,73.06
2018-01-02T23:10:00.516Z,72.39
2018-01-02T23:12:27.988Z,72.00
2018-01-02T23:14:55.444Z,71.90
2018-01-02T23:17:22.919Z,71.57
2018-01-02T23:19:50.402Z,71.66
2018-01-02T23:22:17.868Z,71.13
2018-01-02T23:24:45.316Z,71.17
2018-01-02T23:27:12.784Z,71.67
2018-01-02T23:29:40.232Z,70.45
2018-01-02T23:32:07.791Z,70.81
2018-01-02T23:34:35.244Z,70.36
2018-01-02T23:37:02.712Z,70.30
2018-01-02T23:39:30.164Z,70.43
2018-01-02T23:41:57.632Z,70.43
2018-01-02T23:44:25.090Z,70.29
2018-01-02T23:46:52.556Z,69.98
2018-01-02T23:49:20.021Z,70.03
2018-01-02T23:51:47.488Z,69.97
2018-01-02T23:54:14.944Z,69.74
2018-01-02T23:56:42.412Z,69.75
2018-01-02T23:59:09.859Z,69.45
